hero-logo

Top 15 Knowers of BK Bank Of New York Mellon Corp - 2017-07-25

Rank Fund Result (K)
1 Canyon Capital Advisors Llc $125
2 Amf Pensionsforsakring Ab $61
3 Element Capital Management Llc $49
4 Endeavour Capital Advisors Inc $44
5 Beacon Financial Group $37
6 Piedmont Investment Advisors Llc $28
7 Assenagon Asset Management S A $27
8 Paloma Partners Management Co $24
9 Cornerstone Capital Management Holdings Llc $22
10 Squarepoint Ops Llc $22
11 Capstone Investment Advisors Llc $21
12 361 Capital Llc $21
13 Otter Creek Advisors Llc $20
14 Compagnie Lombard Odier Scma $19
15 Voloridge Investment Management Llc $17
Price Chart and News From Google Finance for BK Bank Of New York Mellon Corp
Owner Date Shares Change Price Change Result (K)
10-15 Associates Inc 2017-03-31 1,814 $-0.15 $0
361 Capital Llc 2017-03-31 -140,917 $-0.15 $21
Acrospire Investment Management Llc 2017-03-31 2,000 $-0.15 $0
Advantage Investment Management Llc 2017-03-31 330 $-0.15 $0
Afam Capital Inc 2017-03-31 -18,463 $-0.15 $2
Ahl Partners Llp 2017-03-31 81,811 $-0.15 $-12
Alpine Partners Vi Llc 2017-03-31 5,729 $-0.15 $0
Amalgamated Bank 2017-03-31 4,242 $-0.15 $0
Amf Pensionsforsakring Ab 2017-03-31 -412,964 $-0.15 $61
Ancora Advisors Llc 2017-03-31 0 $-0.15 $0
Aperio Group Llc 2017-03-31 5,425 $-0.15 $0
Archford Capital Strategies Llc 2017-03-31 2,073 $-0.15 $0
Ardsley Advisory Partners 2017-03-31 -5,000 $-0.15 $0
Arrow Financial Corp 2017-03-31 0 $-0.15 $0
A R T Advisors Llc 2017-03-31 14,000 $-0.15 $-2
Aspen Investment Management Inc 2017-03-31 75 $-0.15 $0
Assenagon Asset Management S A 2017-03-31 -181,011 $-0.15 $27
Assetmark Inc 2017-03-31 704 $-0.15 $0
Aua Capital Management Llc 2017-03-31 0 $-0.15 $0
Auxier Asset Management 2017-03-31 -9,800 $-0.15 $1
Bahl Gaynor Inc 2017-03-31 -796 $-0.15 $0
Barrington Strategic Wealth Management Group Llc 2017-03-31 -655 $-0.15 $0
Beacon Financial Group 2017-06-30 9,903 $3.79 $37
Blair William Co Il 2017-03-31 716 $-0.15 $0
Bluefin Trading Llc 2017-03-31 -1,695 $-0.15 $0
Bluemar Capital Management Llc 2017-03-31 -12,116 $-0.15 $1
Bokf Na 2017-03-31 -1,736 $-0.15 $0
Boston Private Wealth Llc 2017-03-31 235 $-0.15 $0
Bowling Portfolio Management Llc 2017-03-31 48,083 $-0.15 $-7
Bragg Financial Advisors Inc 2017-03-31 1,480 $-0.15 $0
Brinker Capital Inc 2017-03-31 20,506 $-0.15 $-3
Brown Brothers Harriman Co 2017-03-31 19,194 $-0.15 $-2
B S Pension Fund Trustee Ltd Acting For The British Steel P 2017-03-31 -2,922 $-0.15 $0
California State Teachers Retirement System 2017-03-31 -94,500 $-0.15 $14
Camg Solamere Management Llc 2017-03-31 339 $-0.15 $0
Canandaigua National Bank Trust Co 2017-03-31 -85 $-0.15 $0
Canyon Capital Advisors Llc 2017-03-31 -835,771 $-0.15 $125
Capital Guardian Trust Co 2017-03-31 94,900 $-0.15 $-14
Capstone Investment Advisors Llc 2017-03-31 -141,200 $-0.15 $21
Carlson Capital L P 2017-03-31 744,920 $-0.15 $-111
Catamount Wealth Management 2017-03-31 0 $-0.15 $0
Cedar Wealth Management Llc 2017-03-31 0 $-0.15 $0
Cetera Advisor Networks Llc 2017-03-31 -3,279 $-0.15 $0
Cetera Advisors Llc 2017-03-31 2,380 $-0.15 $0
Clear Perspective Advisors Llc 2017-03-31 -2,039 $-0.15 $0
Compagnie Lombard Odier Scma 2017-03-31 -131,838 $-0.15 $19
Compton Capital Management Inc Ri 2017-03-31 0 $-0.15 $0
Cornerstone Capital Management Holdings Llc 2017-03-31 -153,122 $-0.15 $22
Cortland Advisers Llc 2017-03-31 4,680 $-0.15 $0
Cove Street Capital Llc 2017-03-31 30,800 $-0.15 $-4
Covington Capital Management 2017-03-31 82 $-0.15 $0
Crawford Investment Counsel Inc 2017-03-31 183 $-0.15 $0
Cs Mckee Lp 2017-03-31 -46,564 $-0.15 $6
D A Davidson Co 2017-03-31 -12,061 $-0.15 $1
Dixon Hubard Feinour Brown Inc Va 2017-03-31 0 $-0.15 $0
Eagle Capital Management Llc 2017-03-31 0 $-0.15 $0
Earnest Partners Llc 2017-03-31 -520 $-0.15 $0
Edmond De Rothschild Holding S A 2017-03-31 3,129 $-0.15 $0
Element Capital Management Llc 2017-03-31 -332,759 $-0.15 $49
Elkhorn Investments Llc 2017-03-31 -14,787 $-0.15 $2
Ellington Management Group Llc 2017-03-31 -29,200 $-0.15 $4
Endeavour Capital Advisors Inc 2017-03-31 -295,730 $-0.15 $44
Envestnet Asset Management Inc 2017-03-31 11,003 $-0.15 $-1
Estabrook Capital Management 2017-03-31 -3,838 $-0.15 $0
Fairfield Bush Co 2017-03-31 0 $-0.15 $0
Fairpointe Capital Llc 2017-03-31 23,650 $-0.15 $-3
Farmers National Bank 2017-03-31 -1,800 $-0.15 $0
Fdo Partners Llc 2017-03-31 -57,397 $-0.15 $8
Fdx Advisors Inc 2017-03-31 -7,930 $-0.15 $1
Fic Capital Inc 2017-03-31 11,785 $-0.15 $-1
Fiera Capital Corp 2017-03-31 -3,154 $-0.15 $0
First Commonwealth Financial Corp Pa 2017-03-31 -33 $-0.15 $0
First Fiduciary Investment Counsel Inc 2017-03-31 37,073 $-0.15 $-5
First Foundation Advisors 2017-03-31 21,205 $-0.15 $-3
First Republic Investment Management Inc 2017-03-31 244 $-0.15 $0
Florence Capital Advisors Llc 2017-03-31 0 $-0.15 $0
Focused Wealth Management Inc 2017-03-31 -42 $-0.15 $0
Glassman Wealth Services 2017-03-31 1,141 $-0.15 $0
Glen Harbor Capital Management Llc 2017-03-31 160 $-0.15 $0
Glg Llc 2017-03-31 -133 $-0.15 $0
Golub Group Llc 2017-03-31 -4,822 $-0.15 $0
Gotham Asset Management Llc 2017-03-31 804 $-0.15 $0
Gqg Partners Llc 2017-03-31 -9,021 $-0.15 $1
Greenwood Gearhart Inc 2017-03-31 5,755 $-0.15 $0
Group One Trading L P 2017-03-31 -4,050 $-0.15 $0
Gsa Capital Partners Llp 2017-03-31 -22,600 $-0.15 $3
Guardian Capital Lp 2017-03-31 -4,641 $-0.15 $0
Guggenheim Capital Llc 2017-03-31 143,103 $-0.15 $-21
Hamel Associates Inc 2017-03-31 -2,500 $-0.15 $0
Hanson Doremus Investment Management 2017-03-31 0 $-0.15 $0
Heritage Way Advisors Llc 2017-03-31 1,575 $-0.15 $0
Highbridge Capital Management Llc 2017-03-31 116,414 $-0.15 $-17
Highlander Capital Management Llc 2017-03-31 -599 $-0.15 $0
Horizon Kinetics Llc 2017-03-31 -150 $-0.15 $0
Hutchin Hill Capital Lp 2017-03-31 112,500 $-0.15 $-16
Ifp Advisors Inc 2017-03-31 1,151 $-0.15 $0
Iht Wealth Management Llc 2017-03-31 -24 $-0.15 $0
Intact Investment Management Inc 2017-03-31 -7,900 $-0.15 $1
Intellectus Partners Llc 2017-03-31 0 $-0.15 $0
Itau Unibanco Holding S A 2017-03-31 -1,280 $-0.15 $0
Jacobs Levy Equity Management Inc 2017-03-31 143,410 $-0.15 $-21
Jaffetilchin Investment Partners Llc 2017-03-31 -4 $-0.15 $0
Jane Street Group Llc 2017-03-31 -36,919 $-0.15 $5
Jarislowsky Fraser Ltd 2017-03-31 -47,331 $-0.15 $7
Johnson Investment Counsel Inc 2017-03-31 -709 $-0.15 $0
Kelly Lawrence W Associates Inc Ca 2017-03-31 0 $-0.15 $0
Kentucky Retirement Systems 2017-03-31 -10,211 $-0.15 $1
Kentucky Retirement Systems Insurance Trust Fund 2017-03-31 -6,179 $-0.15 $0
Kernodle Katon Asset Management Group Llc 2017-03-31 29 $-0.15 $0
Kingstown Capital Management L P 2017-03-31 0 $-0.15 $0
Kovitz Investment Group Partners Llc 2017-03-31 7,965 $-0.15 $-1
Ladenburg Thalmann Financial Services Inc 2017-03-31 -2,582 $-0.15 $0
Laffer Investments 2017-03-31 0 $-0.15 $0
Lenox Wealth Management Inc 2017-03-31 -739 $-0.15 $0
Lincoln Capital Corp 2017-03-31 528 $-0.15 $0
Logan Capital Management Inc 2017-03-31 0 $-0.15 $0
Madison Investment Holdings Inc 2017-03-31 -6,000 $-0.15 $0
Marco Investment Management Llc 2017-03-31 0 $-0.15 $0
Mason Street Advisors Llc 2017-03-31 -1,271 $-0.15 $0
Mckinley Capital Management Llc Delaware 2017-03-31 1,245 $-0.15 $0
National Asset Management Inc 2017-03-31 -4,994 $-0.15 $0
Neuburgh Advisers Llc 2017-03-31 340 $-0.15 $0
New York Life Trust Co 2017-03-31 -1,150 $-0.15 $0
Northern Oak Wealth Management Inc 2017-03-31 2,565 $-0.15 $0
Northwestern Mutual Investment Management Company Llc 2017-03-31 88,302 $-0.15 $-13
Northwestern Mutual Wealth Management Co 2017-03-31 17,113 $-0.15 $-2
Oberweis Asset Management Inc 2017-03-31 1 $-0.15 $0
Optimum Investment Advisors 2017-03-31 0 $-0.15 $0
Oskie Capital Management Llc 2017-03-31 28,979 $-0.15 $-4
Otter Creek Advisors Llc 2017-03-31 -138,200 $-0.15 $20
Pacific Center For Financial Services 2017-03-31 0 $-0.15 $0
Paloma Partners Management Co 2017-03-31 -164,786 $-0.15 $24
Perigon Wealth Management Llc 2017-03-31 1,461 $-0.15 $0
Piedmont Investment Advisors Llc 2017-03-31 -190,958 $-0.15 $28
Pinkerton Retirement Specialists Llc 2017-03-31 -5,107 $-0.15 $0
Proficio Capital Partners Llc 2017-03-31 273 $-0.15 $0
Public Employees Retirement System Of Ohio 2017-03-31 -18,187 $-0.15 $2
Raymond James Associates 2017-03-31 87,159 $-0.15 $-13
Rbf Capital Llc 2017-03-31 0 $-0.15 $0
Richard Bernstein Advisors Llc 2017-03-31 0 $-0.15 $0
Riverhead Capital Management Llc 2017-03-31 10,611 $-0.15 $-1
Rodgers Brothers Inc 2017-03-31 0 $-0.15 $0
Salem Investment Counselors Inc 2017-03-31 -120 $-0.15 $0
Sather Financial Group Inc 2017-03-31 -500 $-0.15 $0
Schnieders Capital Management Llc 2017-03-31 2,350 $-0.15 $0
Schonfeld Strategic Advisors Llc 2017-03-31 -25,050 $-0.15 $3
Sciencast Management Lp 2017-03-31 -11,960 $-0.15 $1
Scotia Capital Inc 2017-03-31 -4,309 $-0.15 $0
Segall Bryant Hamill Llc 2017-03-31 -1,822 $-0.15 $0
Seven Eight Capital Lp 2017-03-31 -77,137 $-0.15 $11
Signaturefd Llc 2017-03-31 342 $-0.15 $0
Silvercrest Asset Management Group Llc 2017-03-31 -1,006 $-0.15 $0
Squarepoint Ops Llc 2017-03-31 -147,708 $-0.15 $22
Srs Capital Advisors Inc 2017-03-31 0 $-0.15 $0
Sterling Capital Management Llc 2017-03-31 -105,243 $-0.15 $15
Stifel Financial Corp 2017-03-31 -34,402 $-0.15 $5
Strategic Financial Services Inc 2017-03-31 95 $-0.15 $0
Tiverton Asset Management Llc 2017-03-31 -62,804 $-0.15 $9
Trian Fund Management L P 2017-03-31 0 $-0.15 $0
Tyers Asset Management Llc 2017-03-31 220 $-0.15 $0
United American Securities Inc D B A Uas Asset Management 2017-03-31 15,175 $-0.15 $-2
United Capital Financial Advisers Llc 2017-03-31 2,075 $-0.15 $0
Usa Financial Portformulas Corp 2017-03-31 -3,716 $-0.15 $0
Vantage Financial Partners Ltd Inc 2017-03-31 -14,100 $-0.15 $2
Veritable L P 2017-03-31 -167 $-0.15 $0
Verition Fund Management Llc 2017-03-31 -22,616 $-0.15 $3
Voloridge Investment Management Llc 2017-03-31 -115,246 $-0.15 $17
Walleye Trading Llc 2017-03-31 -56,261 $-0.15 $8
Webster Bank N A 2017-03-31 0 $-0.15 $0
Westside Investment Management Inc 2017-03-31 0 $-0.15 $0
Yorkbridge Wealth Partners Llc 2017-03-31 5,888 $-0.15 $0